Terminal Aerodrome Forecast
Issued by NWS Milwaukee/Sullivan, WI

Home | Current Version | Previous Version | Text Only | Print | Product List | Glossary On
Versions: 1 2 3 4 5 6 7 8 9 10 11 12 13 14 15 16 17 18 19 20 21 22 23 24 25 26 27 28 29 30 31 32 33 34 35 36 37 38 39 40 41 42
000
FTUS43 KMKX 200904 AAA
TAFMSN
TAF AMD
KMSN 200904Z 2009/2106 VRB03KT P6SM FEW250
     FM201100 30004KT P6SM SKC
     FM201600 32008KT P6SM BKN035
     FM210000 34005KT P6SM BKN040=

USA.gov is the U.S. government's official web portal to all federal, state and local government web resources and services.